sensor_id;sensor_type;location;lat;lon;timestamp;P1;durP1;ratioP1;P2;durP2;ratioP2
6941;SDS011;3510;43.200;27.920;2023-05-14T00:01:43;8.30;;;7.37;;
6941;SDS011;3510;43.200;27.920;2023-05-14T00:04:11;8.93;;;7.13;;
6941;SDS011;3510;43.200;27.920;2023-05-14T00:06:39;6.53;;;5.30;;
6941;SDS011;3510;43.200;27.920;2023-05-14T00:09:20;7.00;;;6.30;;
6941;SDS011;3510;43.200;27.920;2023-05-14T00:11:47;7.07;;;5.60;;
6941;SDS011;3510;43.200;27.920;2023-05-14T00:14:14;7.87;;;7.07;;
6941;SDS011;3510;43.200;27.920;2023-05-14T00:16:41;9.17;;;8.30;;
6941;SDS011;3510;43.200;27.920;2023-05-14T00:19:08;8.23;;;7.63;;
6941;SDS011;3510;43.200;27.920;2023-05-14T00:21:45;9.10;;;7.90;;
6941;SDS011;3510;43.200;27.920;2023-05-14T00:24:13;8.80;;;7.90;;
6941;SDS011;3510;43.200;27.920;2023-05-14T00:26:40;5.93;;;5.53;;
6941;SDS011;3510;43.200;27.920;2023-05-14T00:29:07;6.90;;;6.30;;
6941;SDS011;3510;43.200;27.920;2023-05-14T00:31:33;10.13;;;7.07;;
6941;SDS011;3510;43.200;27.920;2023-05-14T00:34:00;10.00;;;8.70;;
6941;SDS011;3510;43.200;27.920;2023-05-14T00:36:27;9.27;;;8.27;;
6941;SDS011;3510;43.200;27.920;2023-05-14T00:38:56;9.30;;;8.40;;
6941;SDS011;3510;43.200;27.920;2023-05-14T00:41:23;10.20;;;8.43;;
6941;SDS011;3510;43.200;27.920;2023-05-14T00:43:49;8.03;;;7.20;;
6941;SDS011;3510;43.200;27.920;2023-05-14T00:46:16;9.17;;;7.77;;
6941;SDS011;3510;43.200;27.920;2023-05-14T00:48:43;10.27;;;7.80;;
6941;SDS011;3510;43.200;27.920;2023-05-14T00:51:11;11.23;;;8.97;;
6941;SDS011;3510;43.200;27.920;2023-05-14T00:53:38;9.30;;;8.40;;
6941;SDS011;3510;43.200;27.920;2023-05-14T00:56:06;12.97;;;8.97;;
6941;SDS011;3510;43.200;27.920;2023-05-14T00:58:34;13.60;;;8.63;;
6941;SDS011;3510;43.200;27.920;2023-05-14T01:01:00;9.67;;;8.60;;
6941;SDS011;3510;43.200;27.920;2023-05-14T01:03:28;10.77;;;8.07;;
6941;SDS011;3510;43.200;27.920;2023-05-14T01:06:00;10.53;;;7.07;;
6941;SDS011;3510;43.200;27.920;2023-05-14T01:08:37;14.40;;;9.73;;
6941;SDS011;3510;43.200;27.920;2023-05-14T01:11:10;19.40;;;9.03;;
6941;SDS011;3510;43.200;27.920;2023-05-14T01:13:42;8.50;;;7.57;;
6941;SDS011;3510;43.200;27.920;2023-05-14T01:16:17;10.63;;;8.30;;
6941;SDS011;3510;43.200;27.920;2023-05-14T01:18:45;11.87;;;9.73;;
6941;SDS011;3510;43.200;27.920;2023-05-14T01:24:11;9.33;;;8.40;;
6941;SDS011;3510;43.200;27.920;2023-05-14T01:26:38;11.07;;;8.73;;
6941;SDS011;3510;43.200;27.920;2023-05-14T01:29:08;12.27;;;9.77;;
6941;SDS011;3510;43.200;27.920;2023-05-14T01:31:42;10.27;;;8.47;;
6941;SDS011;3510;43.200;27.920;2023-05-14T01:34:11;11.27;;;8.07;;
6941;SDS011;3510;43.200;27.920;2023-05-14T01:36:39;10.30;;;8.30;;
6941;SDS011;3510;43.200;27.920;2023-05-14T01:39:07;9.03;;;8.23;;
6941;SDS011;3510;43.200;27.920;2023-05-14T01:41:36;16.03;;;9.90;;
6941;SDS011;3510;43.200;27.920;2023-05-14T01:44:04;16.40;;;9.57;;
6941;SDS011;3510;43.200;27.920;2023-05-14T01:46:31;12.50;;;9.20;;
6941;SDS011;3510;43.200;27.920;2023-05-14T01:48:58;9.43;;;8.53;;
6941;SDS011;3510;43.200;27.920;2023-05-14T01:51:58;12.97;;;11.60;;
6941;SDS011;3510;43.200;27.920;2023-05-14T01:54:26;12.60;;;10.00;;
6941;SDS011;3510;43.200;27.920;2023-05-14T01:56:53;9.73;;;8.83;;
6941;SDS011;3510;43.200;27.920;2023-05-14T01:59:20;13.13;;;9.57;;
6941;SDS011;3510;43.200;27.920;2023-05-14T02:01:47;13.93;;;10.37;;
6941;SDS011;3510;43.200;27.920;2023-05-14T02:04:14;10.77;;;9.17;;
6941;SDS011;3510;43.200;27.920;2023-05-14T02:06:41;15.47;;;10.00;;
6941;SDS011;3510;43.200;27.920;2023-05-14T02:09:09;15.37;;;10.67;;
6941;SDS011;3510;43.200;27.920;2023-05-14T02:11:35;10.57;;;9.27;;
6941;SDS011;3510;43.200;27.920;2023-05-14T02:14:02;12.73;;;10.37;;
6941;SDS011;3510;43.200;27.920;2023-05-14T02:16:29;12.13;;;9.40;;
6941;SDS011;3510;43.200;27.920;2023-05-14T02:18:56;9.13;;;8.03;;
6941;SDS011;3510;43.200;27.920;2023-05-14T02:21:23;13.07;;;9.03;;
6941;SDS011;3510;43.200;27.920;2023-05-14T02:23:49;13.50;;;10.20;;
6941;SDS011;3510;43.200;27.920;2023-05-14T02:26:18;13.63;;;9.83;;
6941;SDS011;3510;43.200;27.920;2023-05-14T02:28:45;17.33;;;10.37;;
6941;SDS011;3510;43.200;27.920;2023-05-14T02:31:12;12.30;;;9.80;;
6941;SDS011;3510;43.200;27.920;2023-05-14T02:33:39;15.77;;;11.37;;
6941;SDS011;3510;43.200;27.920;2023-05-14T02:36:06;14.93;;;11.67;;
6941;SDS011;3510;43.200;27.920;2023-05-14T02:38:33;18.30;;;13.80;;
6941;SDS011;3510;43.200;27.920;2023-05-14T02:40:59;35.47;;;24.40;;
6941;SDS011;3510;43.200;27.920;2023-05-14T02:43:28;21.23;;;14.33;;
6941;SDS011;3510;43.200;27.920;2023-05-14T02:45:54;29.77;;;18.40;;
6941;SDS011;3510;43.200;27.920;2023-05-14T02:48:21;21.83;;;15.60;;
6941;SDS011;3510;43.200;27.920;2023-05-14T02:50:48;24.90;;;16.10;;
6941;SDS011;3510;43.200;27.920;2023-05-14T02:53:16;21.20;;;12.70;;
6941;SDS011;3510;43.200;27.920;2023-05-14T02:55:43;18.00;;;13.93;;
6941;SDS011;3510;43.200;27.920;2023-05-14T02:58:10;19.73;;;15.00;;
6941;SDS011;3510;43.200;27.920;2023-05-14T03:00:38;15.40;;;12.63;;
6941;SDS011;3510;43.200;27.920;2023-05-14T03:03:09;20.37;;;14.57;;
6941;SDS011;3510;43.200;27.920;2023-05-14T03:05:36;26.43;;;15.37;;
6941;SDS011;3510;43.200;27.920;2023-05-14T03:08:03;30.43;;;18.80;;
6941;SDS011;3510;43.200;27.920;2023-05-14T03:10:29;31.03;;;21.27;;
6941;SDS011;3510;43.200;27.920;2023-05-14T03:12:57;30.17;;;22.13;;
6941;SDS011;3510;43.200;27.920;2023-05-14T03:15:23;25.60;;;17.83;;
6941;SDS011;3510;43.200;27.920;2023-05-14T03:17:52;23.13;;;17.13;;
6941;SDS011;3510;43.200;27.920;2023-05-14T03:20:18;19.37;;;13.80;;
6941;SDS011;3510;43.200;27.920;2023-05-14T03:22:45;17.03;;;13.27;;
6941;SDS011;3510;43.200;27.920;2023-05-14T03:25:12;19.93;;;13.77;;
6941;SDS011;3510;43.200;27.920;2023-05-14T03:27:39;15.63;;;11.97;;
6941;SDS011;3510;43.200;27.920;2023-05-14T03:30:07;15.93;;;12.30;;
6941;SDS011;3510;43.200;27.920;2023-05-14T03:32:35;15.77;;;12.33;;
6941;SDS011;3510;43.200;27.920;2023-05-14T03:35:04;17.90;;;13.93;;
6941;SDS011;3510;43.200;27.920;2023-05-14T03:37:32;21.70;;;13.33;;
6941;SDS011;3510;43.200;27.920;2023-05-14T03:39:58;14.60;;;12.57;;
6941;SDS011;3510;43.200;27.920;2023-05-14T03:42:25;26.40;;;14.67;;
6941;SDS011;3510;43.200;27.920;2023-05-14T03:44:52;18.43;;;13.87;;
6941;SDS011;3510;43.200;27.920;2023-05-14T03:47:19;26.53;;;17.40;;
6941;SDS011;3510;43.200;27.920;2023-05-14T03:49:46;32.67;;;18.40;;
6941;SDS011;3510;43.200;27.920;2023-05-14T03:52:14;34.50;;;20.27;;
6941;SDS011;3510;43.200;27.920;2023-05-14T03:54:41;35.60;;;20.73;;
6941;SDS011;3510;43.200;27.920;2023-05-14T06:41:36;4.13;;;3.72;;
6941;SDS011;3510;43.200;27.920;2023-05-14T06:44:05;4.13;;;3.83;;
6941;SDS011;3510;43.200;27.920;2023-05-14T06:46:41;3.17;;;2.97;;
6941;SDS011;3510;43.200;27.920;2023-05-14T06:49:08;3.58;;;3.35;;
6941;SDS011;3510;43.200;27.920;2023-05-14T06:51:35;3.38;;;3.17;;
6941;SDS011;3510;43.200;27.920;2023-05-14T06:54:03;3.15;;;3.03;;
6941;SDS011;3510;43.200;27.920;2023-05-14T06:56:34;3.88;;;3.10;;
6941;SDS011;3510;43.200;27.920;2023-05-14T06:59:01;3.30;;;3.10;;
6941;SDS011;3510;43.200;27.920;2023-05-14T07:01:29;3.92;;;3.63;;
6941;SDS011;3510;43.200;27.920;2023-05-14T07:04:09;3.72;;;3.42;;
6941;SDS011;3510;43.200;27.920;2023-05-14T07:06:45;4.03;;;3.35;;
6941;SDS011;3510;43.200;27.920;2023-05-14T07:09:12;3.97;;;3.45;;
6941;SDS011;3510;43.200;27.920;2023-05-14T07:11:39;5.43;;;3.15;;
6941;SDS011;3510;43.200;27.920;2023-05-14T07:14:06;3.70;;;3.40;;
6941;SDS011;3510;43.200;27.920;2023-05-14T07:16:34;4.13;;;3.80;;
6941;SDS011;3510;43.200;27.920;2023-05-14T07:19:02;3.35;;;3.13;;
6941;SDS011;3510;43.200;27.920;2023-05-14T07:21:29;3.72;;;3.42;;
6941;SDS011;3510;43.200;27.920;2023-05-14T07:23:56;3.63;;;3.42;;
6941;SDS011;3510;43.200;27.920;2023-05-14T07:26:35;6.05;;;3.50;;
6941;SDS011;3510;43.200;27.920;2023-05-14T07:29:03;3.67;;;3.47;;
6941;SDS011;3510;43.200;27.920;2023-05-14T07:31:29;3.55;;;3.25;;
6941;SDS011;3510;43.200;27.920;2023-05-14T07:33:57;3.63;;;3.42;;
6941;SDS011;3510;43.200;27.920;2023-05-14T07:36:24;7.65;;;3.80;;
6941;SDS011;3510;43.200;27.920;2023-05-14T07:38:51;4.07;;;3.67;;
6941;SDS011;3510;43.200;27.920;2023-05-14T07:41:18;3.80;;;3.60;;
6941;SDS011;3510;43.200;27.920;2023-05-14T07:43:45;3.75;;;3.55;;
6941;SDS011;3510;43.200;27.920;2023-05-14T07:46:12;5.88;;;3.58;;
6941;SDS011;3510;43.200;27.920;2023-05-14T07:48:40;4.80;;;4.07;;
6941;SDS011;3510;43.200;27.920;2023-05-14T07:51:09;3.78;;;3.47;;
6941;SDS011;3510;43.200;27.920;2023-05-14T07:53:36;3.85;;;3.58;;
6941;SDS011;3510;43.200;27.920;2023-05-14T07:56:03;3.72;;;3.53;;
6941;SDS011;3510;43.200;27.920;2023-05-14T07:58:30;3.90;;;3.60;;
6941;SDS011;3510;43.200;27.920;2023-05-14T08:00:57;3.85;;;3.55;;
6941;SDS011;3510;43.200;27.920;2023-05-14T08:03:25;4.03;;;3.72;;
6941;SDS011;3510;43.200;27.920;2023-05-14T08:05:52;3.42;;;3.13;;
6941;SDS011;3510;43.200;27.920;2023-05-14T08:08:21;2.63;;;2.42;;
6941;SDS011;3510;43.200;27.920;2023-05-14T08:10:49;2.83;;;2.50;;
6941;SDS011;3510;43.200;27.920;2023-05-14T08:13:16;3.42;;;3.13;;
6941;SDS011;3510;43.200;27.920;2023-05-14T08:15:43;3.13;;;2.92;;
6941;SDS011;3510;43.200;27.920;2023-05-14T08:18:09;3.63;;;3.28;;
6941;SDS011;3510;43.200;27.920;2023-05-14T08:20:38;3.55;;;3.35;;
6941;SDS011;3510;43.200;27.920;2023-05-14T08:23:05;5.15;;;3.38;;
6941;SDS011;3510;43.200;27.920;2023-05-14T08:25:34;3.13;;;3.03;;
6941;SDS011;3510;43.200;27.920;2023-05-14T08:28:01;2.80;;;2.70;;
6941;SDS011;3510;43.200;27.920;2023-05-14T08:30:28;6.20;;;3.15;;
6941;SDS011;3510;43.200;27.920;2023-05-14T08:32:56;3.08;;;2.88;;
6941;SDS011;3510;43.200;27.920;2023-05-14T08:35:24;3.50;;;2.70;;
6941;SDS011;3510;43.200;27.920;2023-05-14T08:37:54;3.05;;;2.85;;
6941;SDS011;3510;43.200;27.920;2023-05-14T08:40:21;3.15;;;2.95;;
6941;SDS011;3510;43.200;27.920;2023-05-14T08:42:50;2.80;;;2.60;;
6941;SDS011;3510;43.200;27.920;2023-05-14T08:45:19;2.83;;;2.72;;
6941;SDS011;3510;43.200;27.920;2023-05-14T08:47:50;2.83;;;2.72;;
6941;SDS011;3510;43.200;27.920;2023-05-14T08:50:17;2.90;;;2.70;;
6941;SDS011;3510;43.200;27.920;2023-05-14T08:52:45;3.05;;;2.67;;
6941;SDS011;3510;43.200;27.920;2023-05-14T08:55:12;2.47;;;2.38;;
6941;SDS011;3510;43.200;27.920;2023-05-14T08:57:39;3.33;;;3.03;;
6941;SDS011;3510;43.200;27.920;2023-05-14T09:00:08;2.97;;;2.72;;
6941;SDS011;3510;43.200;27.920;2023-05-14T09:02:36;2.40;;;2.30;;
6941;SDS011;3510;43.200;27.920;2023-05-14T09:05:05;3.45;;;3.00;;
6941;SDS011;3510;43.200;27.920;2023-05-14T09:07:33;3.08;;;2.75;;
6941;SDS011;3510;43.200;27.920;2023-05-14T09:10:01;3.97;;;2.80;;
6941;SDS011;3510;43.200;27.920;2023-05-14T09:12:29;2.20;;;2.10;;
6941;SDS011;3510;43.200;27.920;2023-05-14T09:14:56;3.20;;;3.00;;
6941;SDS011;3510;43.200;27.920;2023-05-14T09:17:25;3.08;;;2.78;;
6941;SDS011;3510;43.200;27.920;2023-05-14T09:19:55;3.15;;;2.78;;
6941;SDS011;3510;43.200;27.920;2023-05-14T09:22:22;3.08;;;2.88;;
6941;SDS011;3510;43.200;27.920;2023-05-14T09:25:00;3.50;;;3.20;;
6941;SDS011;3510;43.200;27.920;2023-05-14T09:27:28;2.85;;;2.75;;
6941;SDS011;3510;43.200;27.920;2023-05-14T09:30:02;3.45;;;3.17;;
6941;SDS011;3510;43.200;27.920;2023-05-14T09:32:36;3.38;;;3.17;;
6941;SDS011;3510;43.200;27.920;2023-05-14T09:35:11;3.58;;;3.38;;
6941;SDS011;3510;43.200;27.920;2023-05-14T09:37:42;3.50;;;3.30;;
6941;SDS011;3510;43.200;27.920;2023-05-14T09:40:09;3.25;;;2.95;;
6941;SDS011;3510;43.200;27.920;2023-05-14T09:42:50;3.00;;;2.80;;
6941;SDS011;3510;43.200;27.920;2023-05-14T09:45:17;2.80;;;2.60;;
6941;SDS011;3510;43.200;27.920;2023-05-14T10:03:28;2.40;;;2.30;;
6941;SDS011;3510;43.200;27.920;2023-05-14T10:05:57;2.47;;;2.38;;
6941;SDS011;3510;43.200;27.920;2023-05-14T10:08:29;3.08;;;2.50;;
6941;SDS011;3510;43.200;27.920;2023-05-14T10:11:00;2.22;;;2.13;;
6941;SDS011;3510;43.200;27.920;2023-05-14T10:13:32;3.67;;;3.42;;
6941;SDS011;3510;43.200;27.920;2023-05-14T10:16:05;4.20;;;2.83;;
6941;SDS011;3510;43.200;27.920;2023-05-14T10:18:44;2.97;;;2.78;;
6941;SDS011;3510;43.200;27.920;2023-05-14T10:21:18;3.15;;;2.92;;
6941;SDS011;3510;43.200;27.920;2023-05-14T10:23:47;2.92;;;2.72;;
6941;SDS011;3510;43.200;27.920;2023-05-14T10:26:23;3.47;;;3.25;;
6941;SDS011;3510;43.200;27.920;2023-05-14T10:28:53;3.38;;;3.10;;
6941;SDS011;3510;43.200;27.920;2023-05-14T10:31:21;2.90;;;2.80;;
6941;SDS011;3510;43.200;27.920;2023-05-14T10:33:50;3.60;;;3.05;;
6941;SDS011;3510;43.200;27.920;2023-05-14T10:36:19;2.63;;;2.53;;
6941;SDS011;3510;43.200;27.920;2023-05-14T10:38:46;3.17;;;2.97;;
6941;SDS011;3510;43.200;27.920;2023-05-14T10:41:21;3.85;;;3.60;;
6941;SDS011;3510;43.200;27.920;2023-05-14T10:43:48;3.40;;;3.20;;
6941;SDS011;3510;43.200;27.920;2023-05-14T10:46:15;3.47;;;3.28;;
6941;SDS011;3510;43.200;27.920;2023-05-14T10:48:44;2.97;;;2.78;;
6941;SDS011;3510;43.200;27.920;2023-05-14T10:51:13;4.40;;;3.28;;
6941;SDS011;3510;43.200;27.920;2023-05-14T10:53:41;3.95;;;2.92;;
6941;SDS011;3510;43.200;27.920;2023-05-14T10:56:09;3.80;;;3.10;;
6941;SDS011;3510;43.200;27.920;2023-05-14T10:58:38;3.05;;;2.85;;
6941;SDS011;3510;43.200;27.920;2023-05-14T11:01:05;3.15;;;2.70;;
6941;SDS011;3510;43.200;27.920;2023-05-14T11:03:37;2.70;;;2.50;;
6941;SDS011;3510;43.200;27.920;2023-05-14T11:06:05;3.05;;;2.85;;
6941;SDS011;3510;43.200;27.920;2023-05-14T11:08:34;3.50;;;2.75;;
6941;SDS011;3510;43.200;27.920;2023-05-14T11:11:02;2.67;;;2.55;;
6941;SDS011;3510;43.200;27.920;2023-05-14T11:13:29;3.22;;;3.00;;
6941;SDS011;3510;43.200;27.920;2023-05-14T11:15:56;3.03;;;2.83;;
6941;SDS011;3510;43.200;27.920;2023-05-14T11:18:25;2.97;;;2.85;;
6941;SDS011;3510;43.200;27.920;2023-05-14T11:20:53;2.70;;;2.60;;
6941;SDS011;3510;43.200;27.920;2023-05-14T11:23:20;2.85;;;2.65;;
6941;SDS011;3510;43.200;27.920;2023-05-14T11:25:51;2.78;;;2.67;;
6941;SDS011;3510;43.200;27.920;2023-05-14T11:28:19;3.72;;;3.42;;
6941;SDS011;3510;43.200;27.920;2023-05-14T11:30:47;2.65;;;2.55;;
6941;SDS011;3510;43.200;27.920;2023-05-14T11:33:14;4.78;;;3.25;;
6941;SDS011;3510;43.200;27.920;2023-05-14T11:35:41;2.80;;;2.70;;
6941;SDS011;3510;43.200;27.920;2023-05-14T11:38:14;2.70;;;2.60;;
6941;SDS011;3510;43.200;27.920;2023-05-14T11:40:41;3.13;;;2.92;;
6941;SDS011;3510;43.200;27.920;2023-05-14T11:43:10;2.65;;;2.55;;
6941;SDS011;3510;43.200;27.920;2023-05-14T11:45:40;4.30;;;3.13;;
6941;SDS011;3510;43.200;27.920;2023-05-14T11:48:11;3.25;;;3.05;;
6941;SDS011;3510;43.200;27.920;2023-05-14T11:50:42;4.10;;;3.28;;
6941;SDS011;3510;43.200;27.920;2023-05-14T11:53:10;2.78;;;2.58;;
6941;SDS011;3510;43.200;27.920;2023-05-14T11:55:41;4.35;;;2.45;;
6941;SDS011;3510;43.200;27.920;2023-05-14T11:58:08;3.10;;;3.00;;
6941;SDS011;3510;43.200;27.920;2023-05-14T12:00:36;3.30;;;3.10;;
6941;SDS011;3510;43.200;27.920;2023-05-14T12:03:03;2.30;;;2.20;;
6941;SDS011;3510;43.200;27.920;2023-05-14T12:05:30;2.60;;;2.40;;
6941;SDS011;3510;43.200;27.920;2023-05-14T12:07:57;2.60;;;2.38;;
6941;SDS011;3510;43.200;27.920;2023-05-14T12:10:27;4.22;;;2.72;;
6941;SDS011;3510;43.200;27.920;2023-05-14T12:12:54;2.63;;;2.53;;
6941;SDS011;3510;43.200;27.920;2023-05-14T12:15:21;2.45;;;2.28;;
6941;SDS011;3510;43.200;27.920;2023-05-14T12:17:49;2.45;;;2.33;;
6941;SDS011;3510;43.200;27.920;2023-05-14T12:20:16;2.33;;;2.13;;
6941;SDS011;3510;43.200;27.920;2023-05-14T12:22:44;2.85;;;2.28;;
6941;SDS011;3510;43.200;27.920;2023-05-14T12:25:11;2.60;;;2.50;;
6941;SDS011;3510;43.200;27.920;2023-05-14T12:27:38;2.60;;;2.15;;
6941;SDS011;3510;43.200;27.920;2023-05-14T12:30:06;2.20;;;2.10;;
6941;SDS011;3510;43.200;27.920;2023-05-14T12:32:33;10.68;;;3.92;;
6941;SDS011;3510;43.200;27.920;2023-05-14T12:35:02;2.40;;;2.28;;
6941;SDS011;3510;43.200;27.920;2023-05-14T12:37:29;8.13;;;2.63;;
6941;SDS011;3510;43.200;27.920;2023-05-14T12:39:56;2.50;;;2.40;;
6941;SDS011;3510;43.200;27.920;2023-05-14T12:42:23;2.40;;;2.30;;
6941;SDS011;3510;43.200;27.920;2023-05-14T12:44:51;2.35;;;2.13;;
6941;SDS011;3510;43.200;27.920;2023-05-14T12:47:17;2.38;;;2.17;;
6941;SDS011;3510;43.200;27.920;2023-05-14T12:49:45;3.53;;;2.00;;
6941;SDS011;3510;43.200;27.920;2023-05-14T12:52:13;4.57;;;2.20;;
6941;SDS011;3510;43.200;27.920;2023-05-14T12:54:40;2.53;;;2.17;;
6941;SDS011;3510;43.200;27.920;2023-05-14T12:57:07;3.75;;;3.40;;
6941;SDS011;3510;43.200;27.920;2023-05-14T12:59:34;2.88;;;2.10;;
6941;SDS011;3510;43.200;27.920;2023-05-14T13:02:01;2.20;;;2.10;;
6941;SDS011;3510;43.200;27.920;2023-05-14T13:04:28;2.28;;;2.13;;
6941;SDS011;3510;43.200;27.920;2023-05-14T13:06:54;2.67;;;2.58;;
6941;SDS011;3510;43.200;27.920;2023-05-14T13:09:23;2.65;;;2.50;;
6941;SDS011;3510;43.200;27.920;2023-05-14T13:11:51;2.78;;;2.58;;
6941;SDS011;3510;43.200;27.920;2023-05-14T13:14:18;2.50;;;2.30;;
6941;SDS011;3510;43.200;27.920;2023-05-14T13:16:45;2.15;;;2.05;;
6941;SDS011;3510;43.200;27.920;2023-05-14T13:19:12;2.55;;;2.45;;
6941;SDS011;3510;43.200;27.920;2023-05-14T13:21:38;4.75;;;2.10;;
6941;SDS011;3510;43.200;27.920;2023-05-14T13:24:05;2.72;;;2.53;;
6941;SDS011;3510;43.200;27.920;2023-05-14T13:26:35;2.50;;;2.40;;
6941;SDS011;3510;43.200;27.920;2023-05-14T13:29:02;2.83;;;2.58;;
6941;SDS011;3510;43.200;27.920;2023-05-14T13:31:29;2.58;;;2.47;;
6941;SDS011;3510;43.200;27.920;2023-05-14T13:33:56;4.15;;;2.88;;
6941;SDS011;3510;43.200;27.920;2023-05-14T13:36:23;2.53;;;2.38;;
6941;SDS011;3510;43.200;27.920;2023-05-14T13:38:50;2.42;;;2.33;;
6941;SDS011;3510;43.200;27.920;2023-05-14T13:41:17;3.05;;;2.67;;
6941;SDS011;3510;43.200;27.920;2023-05-14T13:43:47;2.63;;;2.38;;
6941;SDS011;3510;43.200;27.920;2023-05-14T13:46:14;2.40;;;2.30;;
6941;SDS011;3510;43.200;27.920;2023-05-14T13:48:40;2.30;;;2.20;;
6941;SDS011;3510;43.200;27.920;2023-05-14T13:51:07;2.60;;;2.50;;
6941;SDS011;3510;43.200;27.920;2023-05-14T13:53:34;3.65;;;2.10;;
6941;SDS011;3510;43.200;27.920;2023-05-14T13:56:01;3.03;;;2.25;;
6941;SDS011;3510;43.200;27.920;2023-05-14T13:58:27;5.45;;;2.35;;
6941;SDS011;3510;43.200;27.920;2023-05-14T14:00:56;2.75;;;2.55;;
6941;SDS011;3510;43.200;27.920;2023-05-14T14:03:22;6.13;;;2.50;;
6941;SDS011;3510;43.200;27.920;2023-05-14T14:05:49;2.28;;;2.17;;
6941;SDS011;3510;43.200;27.920;2023-05-14T14:08:16;4.32;;;2.50;;
6941;SDS011;3510;43.200;27.920;2023-05-14T14:10:43;3.83;;;2.72;;
6941;SDS011;3510;43.200;27.920;2023-05-14T14:13:10;2.65;;;2.45;;
6941;SDS011;3510;43.200;27.920;2023-05-14T14:15:38;2.30;;;2.20;;
6941;SDS011;3510;43.200;27.920;2023-05-14T14:18:06;2.65;;;2.42;;
6941;SDS011;3510;43.200;27.920;2023-05-14T14:20:33;3.05;;;2.90;;
6941;SDS011;3510;43.200;27.920;2023-05-14T14:23:00;3.15;;;2.50;;
6941;SDS011;3510;43.200;27.920;2023-05-14T14:25:27;2.67;;;2.58;;
6941;SDS011;3510;43.200;27.920;2023-05-14T14:27:54;2.35;;;2.20;;
6941;SDS011;3510;43.200;27.920;2023-05-14T14:30:22;2.55;;;2.35;;
6941;SDS011;3510;43.200;27.920;2023-05-14T14:32:49;2.70;;;2.50;;
6941;SDS011;3510;43.200;27.920;2023-05-14T14:35:18;2.83;;;2.63;;
6941;SDS011;3510;43.200;27.920;2023-05-14T14:37:45;2.50;;;2.40;;
6941;SDS011;3510;43.200;27.920;2023-05-14T14:40:14;2.40;;;2.20;;
6941;SDS011;3510;43.200;27.920;2023-05-14T14:42:42;2.40;;;2.30;;
6941;SDS011;3510;43.200;27.920;2023-05-14T14:45:09;2.25;;;2.15;;
6941;SDS011;3510;43.200;27.920;2023-05-14T14:47:36;3.30;;;2.25;;
6941;SDS011;3510;43.200;27.920;2023-05-14T14:50:03;3.88;;;2.13;;
6941;SDS011;3510;43.200;27.920;2023-05-14T14:52:32;2.95;;;2.78;;
6941;SDS011;3510;43.200;27.920;2023-05-14T14:55:00;2.40;;;2.10;;
6941;SDS011;3510;43.200;27.920;2023-05-14T14:57:27;2.38;;;2.17;;
6941;SDS011;3510;43.200;27.920;2023-05-14T14:59:54;2.53;;;2.10;;
6941;SDS011;3510;43.200;27.920;2023-05-14T15:02:20;2.75;;;2.55;;
6941;SDS011;3510;43.200;27.920;2023-05-14T15:04:48;2.97;;;2.70;;
6941;SDS011;3510;43.200;27.920;2023-05-14T15:07:14;2.92;;;2.72;;
6941;SDS011;3510;43.200;27.920;2023-05-14T15:09:44;2.33;;;2.13;;
6941;SDS011;3510;43.200;27.920;2023-05-14T15:12:10;2.90;;;2.47;;
6941;SDS011;3510;43.200;27.920;2023-05-14T15:14:38;2.90;;;2.70;;
6941;SDS011;3510;43.200;27.920;2023-05-14T15:17:05;2.40;;;2.30;;
6941;SDS011;3510;43.200;27.920;2023-05-14T15:19:31;2.67;;;2.58;;
6941;SDS011;3510;43.200;27.920;2023-05-14T15:21:58;2.40;;;2.30;;
6941;SDS011;3510;43.200;27.920;2023-05-14T15:24:25;2.83;;;2.63;;
6941;SDS011;3510;43.200;27.920;2023-05-14T15:26:53;3.70;;;2.75;;
6941;SDS011;3510;43.200;27.920;2023-05-14T15:29:19;2.30;;;2.20;;
6941;SDS011;3510;43.200;27.920;2023-05-14T15:31:47;3.47;;;3.03;;
6941;SDS011;3510;43.200;27.920;2023-05-14T15:34:14;2.60;;;2.40;;
6941;SDS011;3510;43.200;27.920;2023-05-14T15:36:42;2.97;;;2.78;;
6941;SDS011;3510;43.200;27.920;2023-05-14T15:39:09;2.60;;;2.50;;
6941;SDS011;3510;43.200;27.920;2023-05-14T15:41:36;3.75;;;3.03;;
6941;SDS011;3510;43.200;27.920;2023-05-14T15:44:04;2.90;;;2.70;;
6941;SDS011;3510;43.200;27.920;2023-05-14T15:46:31;3.17;;;2.90;;
6941;SDS011;3510;43.200;27.920;2023-05-14T15:48:58;3.55;;;3.25;;
6941;SDS011;3510;43.200;27.920;2023-05-14T15:51:25;2.83;;;2.63;;
6941;SDS011;3510;43.200;27.920;2023-05-14T15:53:51;2.88;;;2.67;;
6941;SDS011;3510;43.200;27.920;2023-05-14T15:56:20;2.90;;;2.70;;
6941;SDS011;3510;43.200;27.920;2023-05-14T15:58:47;2.67;;;2.47;;
6941;SDS011;3510;43.200;27.920;2023-05-14T16:01:17;3.45;;;3.13;;
6941;SDS011;3510;43.200;27.920;2023-05-14T16:03:44;3.33;;;3.13;;
6941;SDS011;3510;43.200;27.920;2023-05-14T16:06:11;3.45;;;2.50;;
6941;SDS011;3510;43.200;27.920;2023-05-14T16:08:39;2.58;;;2.38;;
6941;SDS011;3510;43.200;27.920;2023-05-14T16:11:06;2.53;;;2.33;;
6941;SDS011;3510;43.200;27.920;2023-05-14T16:13:32;2.67;;;2.55;;
6941;SDS011;3510;43.200;27.920;2023-05-14T16:16:02;3.33;;;2.55;;
6941;SDS011;3510;43.200;27.920;2023-05-14T16:18:31;2.92;;;2.78;;
6941;SDS011;3510;43.200;27.920;2023-05-14T16:20:58;3.88;;;2.70;;
6941;SDS011;3510;43.200;27.920;2023-05-14T16:23:28;2.65;;;2.45;;
6941;SDS011;3510;43.200;27.920;2023-05-14T16:25:55;3.08;;;2.88;;
6941;SDS011;3510;43.200;27.920;2023-05-14T16:28:25;2.40;;;2.30;;
6941;SDS011;3510;43.200;27.920;2023-05-14T16:30:51;2.45;;;2.35;;
6941;SDS011;3510;43.200;27.920;2023-05-14T16:33:18;2.30;;;2.10;;
6941;SDS011;3510;43.200;27.920;2023-05-14T16:35:47;4.43;;;3.20;;
6941;SDS011;3510;43.200;27.920;2023-05-14T16:38:14;4.05;;;2.35;;
6941;SDS011;3510;43.200;27.920;2023-05-14T16:40:41;2.17;;;2.05;;
6941;SDS011;3510;43.200;27.920;2023-05-14T16:43:09;2.50;;;2.30;;
6941;SDS011;3510;43.200;27.920;2023-05-14T16:45:36;2.95;;;2.75;;
6941;SDS011;3510;43.200;27.920;2023-05-14T16:48:04;2.92;;;2.70;;
6941;SDS011;3510;43.200;27.920;2023-05-14T16:50:31;5.32;;;2.70;;
6941;SDS011;3510;43.200;27.920;2023-05-14T16:52:59;4.55;;;2.50;;
6941;SDS011;3510;43.200;27.920;2023-05-14T16:55:26;2.72;;;2.63;;
6941;SDS011;3510;43.200;27.920;2023-05-14T16:57:53;3.03;;;2.67;;
6941;SDS011;3510;43.200;27.920;2023-05-14T17:00:20;3.22;;;2.95;;
6941;SDS011;3510;43.200;27.920;2023-05-14T17:02:48;4.47;;;2.47;;
6941;SDS011;3510;43.200;27.920;2023-05-14T17:05:18;2.53;;;2.42;;
6941;SDS011;3510;43.200;27.920;2023-05-14T17:07:44;2.92;;;2.72;;
6941;SDS011;3510;43.200;27.920;2023-05-14T17:10:13;2.20;;;2.10;;
6941;SDS011;3510;43.200;27.920;2023-05-14T17:12:40;3.58;;;2.92;;
6941;SDS011;3510;43.200;27.920;2023-05-14T17:15:08;2.38;;;2.28;;
6941;SDS011;3510;43.200;27.920;2023-05-14T17:17:35;3.47;;;2.17;;
6941;SDS011;3510;43.200;27.920;2023-05-14T17:20:02;3.15;;;2.90;;
6941;SDS011;3510;43.200;27.920;2023-05-14T17:22:30;2.63;;;2.45;;
6941;SDS011;3510;43.200;27.920;2023-05-14T17:24:58;2.60;;;2.50;;
6941;SDS011;3510;43.200;27.920;2023-05-14T17:27:32;3.42;;;2.67;;
6941;SDS011;3510;43.200;27.920;2023-05-14T17:30:00;2.65;;;2.53;;
